• Join FlightAware (Why Join?)
  • Login
  • US Flag 
09:30PM EDT


 

Airport Tracker/Info


-or-


 

Live Flight TrackerFlight Track Log ✈ UAL906 ✈ 11-Jun-2013 ✈ EDDF / FRA - KORD

Flight Track Log - Related Links

Times and Time Zones

All times are in EDT time to prevent confusion due to time zone crossing. See the UAL906 flight status page for this flight to view local times or setup timezone preferences in your user account.

Time Position Orientation Groundspeed Altitude Reporting Facility
EDT Latitude Longitude Course Direction KTS MPH feet Rate Location/Type
07:07AM 50.0270 8.5030 264° West 187 215 1,700  Level FlightAware
07:08AM 50.0290 8.4600 274° West 190 219 2,900 2,100 Climbing FlightAware
07:08AM 50.0280 8.4270 267° West 190 219 3,700 1,380 Climbing FlightAware
07:09AM 50.0240 8.3910 260° West 213 245 4,100 1,080 Climbing FlightAware
07:09AM 50.0170 8.3400 258° West 251 289 4,700 1,320 Climbing FlightAware
07:09AM 50.0140 8.3080 262° West 261 300 5,200 2,280 Climbing FlightAware
07:10AM 50.0180 8.2620 278° West 258 297 6,400 2,040 Climbing FlightAware
07:10AM 50.0310 8.2150 293° West 269 310 7,100 1,500 Climbing FlightAware
07:11AM 50.0470 8.1600 294° West 272 313 8,400 1,920 Climbing FlightAware
07:11AM 50.0700 8.0980 300° West 300 345 9,100 1,800 Climbing FlightAware
07:12AM 50.0970 8.0450 308° West 329 379 9,700 1,020 Climbing FlightAware
07:13AM 50.1360 7.9700 309° West 348 400 10,600 1,800 Climbing FlightAware
07:13AM 50.1920 7.8610 309° West 365 420 12,500 2,220 Climbing FlightAware
07:14AM 50.2350 7.7780 309° West 364 419 13,600 1,740 Climbing FlightAware
07:15AM 50.3040 7.7010 325° Northwest 373 429 15,200 1,860 Climbing FlightAware
07:16AM 50.3700 7.6580 337° Northwest 387 445 16,400 1,560 Climbing FlightAware
07:16AM 50.4240 7.6220 337° Northwest 385 443 17,300 1,740 Climbing FlightAware
07:17AM 50.5400 7.5410 336° Northwest 392 451 19,600 1,800 Climbing FlightAware
07:18AM 50.6240 7.4630 330° Northwest 402 463 20,800 1,560 Climbing FlightAware
07:19AM 50.6860 7.3980 326° Northwest 407 468 21,800 1,380 Climbing FlightAware
07:19AM 50.7490 7.3340 327° Northwest 405 466 22,700 1,260 Climbing FlightAware
07:20AM 50.7990 7.2830 327° Northwest 416 479 23,400 1,260 Climbing FlightAware
07:21AM 50.8730 7.2060 327° Northwest 421 484 24,400 1,200 Climbing FlightAware
07:21AM 50.9460 7.1290 326° Northwest 430 495 25,200 1,200 Climbing FlightAware
07:22AM 51.0090 7.0510 322° Northwest 428 493 26,100 1,320 Climbing FlightAware
07:23AM 51.0780 6.9540 319° Northwest 432 497 27,100 1,140 Climbing FlightAware
07:24AM 51.1530 6.8260 313° West 446 513 28,000 900 Climbing FlightAware
07:24AM 51.1790 6.7010 288° West 455 524 28,600 960 Climbing FlightAware
07:25AM 51.2060 6.5460 286° West 463 533 29,400 960 Climbing FlightAware
07:26AM 51.2260 6.4260 285° West 467 537 30,000 900 Climbing FlightAware
07:27AM 51.2530 6.2640 285° West 473 544 30,700 720 Climbing FlightAware
07:27AM 51.2770 6.1420 288° West 476 548 31,100 1,020 Climbing FlightAware
07:28AM 51.3300 5.9900 299° West 469 540 32,200 1,200 Climbing FlightAware
07:29AM 51.3740 5.8800 303° West 468 539 32,900 960 Climbing FlightAware
07:29AM 51.4230 5.7570 303° West 468 539 33,500 780 Climbing FlightAware
07:30AM 51.4720 5.6350 303° West 466 536 34,000 360 Climbing FlightAware
07:31AM 51.5180 5.5210 303° West 465 535 34,000  Level FlightAware
07:32AM 51.5780 5.3880 306° West 465 535 34,000  Level FlightAware
07:32AM 51.6039 5.3248 306° West 476 548 34,000  Level FlightAware UK
07:32AM 51.6400 5.2880 306° West 465 535 34,000  Level FlightAware
07:33AM 51.6820 5.2145 306° West 476 548 34,000  Level FlightAware UK
07:33AM 51.7060 5.1830 306° West 465 535 34,000 -240 Level FlightAware
07:33AM 51.7283 5.1427 306° West 476 548 33,900  Descending FlightAware UK
07:34AM 51.7670 5.0880 306° West 465 535 34,000  Climbing FlightAware
07:34AM 51.8126 5.0133 306° West 476 548 33,900  Descending FlightAware UK
07:34AM 51.8280 4.9910 306° West 466 536 34,000 120 Climbing FlightAware
07:35AM 51.8691 4.9270 306° West 478 550 34,000  Level FlightAware UK
07:35AM 51.8960 4.8840 306° West 465 535 34,000  Level FlightAware
07:36AM 51.9600 4.7830 316° Northwest 465 535 34,000  Level FlightAware
07:36AM 52.0230 4.6820 315° West 465 535 34,000  Level FlightAware
07:37AM 52.0522 4.6336 315° West 476 548 34,000  Level FlightAware UK
07:37AM 52.0890 4.5770 315° West 465 535 34,000  Level FlightAware
07:38AM 52.1480 4.4820 315° West 464 534 34,000 -120 Level FlightAware
07:38AM 52.1990 4.3995 315° West 478 550 33,900  Descending FlightAware UK
07:39AM 52.2180 4.3680 315° West 465 535 34,000  Climbing FlightAware
07:39AM 52.2543 4.3109 315° West 478 550 33,900  Descending FlightAware UK
07:39AM 52.2820 4.2640 315° West 464 534 34,000  Climbing FlightAware
07:40AM 52.3542 4.1476 315° West 476 548 33,900  Descending FlightAware UK
07:40AM 52.3880 4.0900 315° West 463 533 34,000  Climbing FlightAware
07:41AM 52.4539 3.9840 315° West 478 550 33,900  Descending FlightAware UK
07:41AM 52.4520 3.9860 315° West 463 533 34,000 120 Climbing FlightAware
07:42AM 52.5150 3.8810 315° West 463 533 34,000 -120 Level FlightAware
07:42AM 52.5443 3.8345 315° West 480 552 33,900  Descending FlightAware UK
07:42AM 52.5750 3.7820 315° West 462 532 34,000 60 Climbing FlightAware
07:43AM 52.6254 3.7000 315° West 480 552 34,000  Level FlightAware UK
07:43AM 52.6240 3.7020 315° West 461 531 34,000  Level FlightAware
07:44AM 52.6950 3.5770 313° West 459 528 34,000 -120 Level FlightAware
07:44AM 52.7264 3.5126 313° West 478 550 33,900  Descending FlightAware UK
07:45AM 52.7570 3.4420 313° West 458 527 34,000  Climbing FlightAware
07:45AM 52.7787 3.3941 313° West 476 548 33,900  Descending FlightAware UK
07:45AM 52.8050 3.3290 313° West 458 527 34,000 360 Climbing FlightAware
07:46AM 52.8530 3.2160 305° West 459 528 34,300 600 Climbing FlightAware
07:47AM 52.9090 3.0810 305° West 458 527 34,900 720 Climbing FlightAware
07:47AM 52.9590 2.9610 305° West 457 526 35,400 600 Climbing FlightAware
07:48AM 53.0070 2.8460 305° West 458 527 35,800 540 Climbing FlightAware
07:48AM 53.0092 2.8405 305° West 474 545 35,800 120 Level FlightAware UK
07:49AM 53.0521 2.7357 305° West 472 543 35,900 240 Climbing FlightAware UK
07:49AM 53.0590 2.7180 305° West 457 526 36,000 120 Climbing FlightAware
07:50AM 53.1070 2.6020 305° West 457 526 36,000 -120 Level FlightAware
07:50AM 53.1306 2.5444 305° West 470 541 35,900  Descending FlightAware UK
07:50AM 53.1570 2.4810 305° West 459 528 36,000 60 Climbing FlightAware
07:51AM 53.2090 2.3530 304° West 459 528 36,000  Level FlightAware
07:52AM 53.2540 2.2410 304° West 459 528 36,000  Level FlightAware
07:52AM 53.3060 2.1120 304° West 459 528 36,000  Level FlightAware
07:53AM 53.3590 1.9810 304° West 461 531 36,000 -120 Level FlightAware
07:54AM 53.4077 1.8579 304° West 470 541 35,900  Descending FlightAware UK
07:54AM 53.4060 1.8630 304° West 462 532 36,000 120 Climbing FlightAware
07:54AM 53.4560 1.7350 303° West 463 533 36,000  Level FlightAware
07:55AM 53.5020 1.6200 303° West 465 535 36,000 -180 Level FlightAware
07:55AM 53.5067 1.6074 303° West 470 541 35,900 -240 Descending FlightAware UK
07:56AM 53.5422 1.5170 303° West 470 541 35,900 120 Level FlightAware UK
07:56AM 53.5531 1.4899 303° West 465 535 36,000  Climbing FlightAware ADS-B
07:56AM 53.5846 1.4090 303° West 472 543 35,900  Descending FlightAware UK
07:57AM 53.6020 1.3660 303° West 468 539 36,000  Climbing FlightAware
07:57AM 53.6274 1.2997 303° West 472 543 35,900  Descending FlightAware UK
07:57AM 53.6410 1.2640 303° West 469 540 36,000  Climbing FlightAware
07:58AM 53.7056 1.0976 303° West 474 545 35,900  Descending FlightAware UK
07:58AM 53.7080 1.0930 303° West 471 542 36,000 120 Climbing FlightAware
07:59AM 53.7481 0.9873 303° West 472 543 36,000  Level FlightAware UK
07:59AM 53.7550 0.9700 303° West 472 543 36,000  Level FlightAware
07:59AM 53.8020 0.8480 303° West 473 544 36,000  Level FlightAware
08:00AM 53.8476 0.7278 303° West 472 543 36,000  Level FlightAware UK
08:00AM 53.8500 0.7200 303° West 474 545 36,000  Level FlightAware
08:01AM 53.8902 0.6153 303° West 474 545 36,000  Level FlightAware UK
08:01AM 53.9040 0.5780 303° West 476 548 36,000 -180 Level FlightAware
08:01AM 53.9327 0.5030 303° West 472 543 35,900  Descending FlightAware UK
08:01AM 53.9500 0.4580 303° West 476 548 36,000 180 Climbing FlightAware
08:02AM 53.9704 0.4028 302° West 476 548 36,000  Level FlightAware ADS-B
08:02AM 54.0186 0.2821 304° West 479 551 36,000  Level FlightAware ADS-B
08:03AM 54.0430 0.2236 304° West 474 545 36,000  Level FlightAware UK
08:03AM 54.0600 0.1840 304° West 481 554 36,000  Level FlightAware
08:03AM 54.1133 0.0605 304° West 472 543 36,000  Level FlightAware UK
08:04AM 54.1140 0.0590 304° West 482 555 36,000  Level FlightAware
08:04AM 54.1615 -0.0496 304° West 472 543 36,000  Level FlightAware UK
08:04AM 54.1680 -0.0630 304° West 484 557 36,000  Level FlightAware
08:05AM 54.2093 -0.1590 304° West 474 545 36,000  Level FlightAware UK
08:05AM 54.2440 -0.2410 304° West 485 558 36,000  Level FlightAware
08:06AM 54.3030 -0.3780 306° West 487 560 36,000  Level FlightAware
08:07AM 54.3540 -0.4980 306° West 488 562 36,000  Level FlightAware
08:07AM 54.4060 -0.6200 306° West 489 563 36,000  Level FlightAware
08:07AM 54.4314 -0.6797 306° West 476 548 36,000  Level FlightAware UK
08:08AM 54.4710 -0.7741 306° West 476 548 36,000  Level FlightAware UK
08:08AM 54.4700 -0.7720 306° West 490 564 36,000  Level FlightAware
08:08AM 54.5105 -0.8690 306° West 474 545 36,000  Level FlightAware UK
08:09AM 54.5210 -0.8930 306° West 490 564 36,000  Level FlightAware
08:09AM 54.5710 -1.0140 306° West 488 562 36,000  Level FlightAware
08:10AM 54.6289 -1.1526 306° West 476 548 36,000  Level FlightAware UK
08:10AM 54.6470 -1.1970 306° West 489 563 36,000  Level FlightAware
08:10AM 54.6640 -1.2390 306° West 489 563 36,000  Level FlightAware
08:11AM 54.6758 -1.2669 306° West 476 548 36,000  Level FlightAware UK
08:11AM 54.7340 -1.4090 306° West 484 557 36,000  Level FlightAware
08:12AM 54.7890 -1.5430 305° West 489 563 36,000  Level FlightAware
08:12AM 54.8163 -1.6103 305° West 474 545 36,000  Level FlightAware UK
08:13AM 54.8490 -1.6900 305° West 489 563 36,000 -180 Level FlightAware
08:13AM 54.8704 -1.7443 305° West 476 548 35,900  Descending FlightAware UK
08:14AM 54.9040 -1.8280 305° West 489 563 36,000 60 Climbing FlightAware
08:14AM 54.9580 -1.9630 305° West 490 564 36,000  Level FlightAware
08:15AM 55.0040 -2.0780 305° West 490 564 36,000  Level FlightAware
08:16AM 55.0670 -2.2350 305° West 490 564 36,000  Level FlightAware
08:16AM 55.1130 -2.3520 305° West 492 566 36,000  Level FlightAware
08:16AM 55.1177 -2.3647 305° West 476 548 36,000  Level FlightAware UK
08:17AM 55.1760 -2.5130 304° West 492 566 36,000  Level FlightAware
08:18AM 55.2290 -2.6480 305° West 493 567 36,000 -120 Level FlightAware
08:18AM 55.2556 -2.7178 305° West 476 548 35,900  Descending FlightAware UK
08:18AM 55.2840 -2.7920 305° West 493 567 36,000 60 Climbing FlightAware
08:19AM 55.3380 -2.9300 305° West 494 568 36,000 -120 Level FlightAware
08:20AM 55.3857 -3.0549 305° West 476 548 35,900  Descending FlightAware UK
08:20AM 55.3870 -3.0580 305° West 494 568 36,000 120 Climbing FlightAware
08:21AM 55.4430 -3.2050 304° West 495 570 36,000  Level FlightAware
08:21AM 55.4990 -3.3520 304° West 497 572 36,000  Level FlightAware
08:22AM 55.5420 -3.4720 302° West 496 571 36,000  Level FlightAware
08:23AM 55.5940 -3.6270 301° West 495 570 36,000  Level FlightAware
08:23AM 55.6440 -3.7760 301° West 497 572 36,000 -120 Level FlightAware
08:24AM 55.6916 -3.9144 301° West 476 548 35,900  Descending FlightAware UK
08:24AM 55.6930 -3.9170 301° West 498 573 36,000  Climbing FlightAware
08:25AM 55.7340 -4.0392 301° West 480 552 35,900  Descending FlightAware UK
08:25AM 55.7450 -4.0710 301° West 498 573 36,000  Climbing FlightAware
08:25AM 55.7696 -4.1438 301° West 480 552 35,900 -240 Descending FlightAware UK
08:26AM 55.8048 -4.2491 301° West 478 550 35,900 120 Level FlightAware UK
08:26AM 55.8210 -4.2980 301° West 499 574 36,000  Climbing FlightAware
08:26AM 55.8540 -4.3969 301° West 484 557 35,900  Descending FlightAware UK
08:26AM 55.8630 -4.4250 301° West 498 573 36,000  Climbing FlightAware
08:27AM 55.8863 -4.5049 301° West 484 557 35,900  Descending FlightAware UK
08:27AM 55.9090 -4.5870 301° West 493 567 36,000 60 Climbing FlightAware
08:28AM 55.9459 -4.7251 301° West 478 550 36,000  Level FlightAware UK
08:28AM 55.9470 -4.7300 301° West 496 571 36,000 -180 Level FlightAware
08:28AM 55.9810 -4.8581 301° West 480 552 35,900  Descending FlightAware UK
08:29AM 55.9880 -4.8830 301° West 497 572 36,000  Climbing FlightAware
08:29AM 56.0163 -4.9911 301° West 478 550 35,900  Descending FlightAware UK
08:29AM 56.0320 -5.0510 301° West 497 572 36,000  Climbing FlightAware
08:30AM 56.0511 -5.1240 301° West 478 550 35,900  Descending FlightAware UK
08:30AM 56.0710 -5.2010 301° West 499 574 36,000  Climbing FlightAware
08:30AM 56.0920 -5.2803 301° West 484 557 35,900  Descending FlightAware UK
08:31AM 56.1100 -5.3480 301° West 498 573 36,000 60 Climbing FlightAware
08:31AM 56.1560 -5.5269 301° West 480 552 36,000  Level FlightAware UK
08:31AM 56.1580 -5.5330 301° West 498 573 36,000 -240 Level FlightAware
08:32AM 56.1848 -5.6392 301° West 482 555 35,900  Descending FlightAware UK
08:32AM 56.1960 -5.6830 301° West 499 574 36,000  Climbing FlightAware
08:32AM 56.2136 -5.7517 301° West 482 555 35,900  Descending FlightAware UK
08:33AM 56.2340 -5.8330 301° West 499 574 36,000  Climbing FlightAware
08:33AM 56.2767 -6.0001 301° West 482 555 35,900  Descending FlightAware UK
08:33AM 56.2780 -6.0050 301° West 497 572 36,000  Climbing FlightAware
08:34AM 56.3051 -6.1136 301° West 478 550 35,900  Descending FlightAware UK
08:34AM 56.3150 -6.1540 301° West 497 572 36,000  Climbing FlightAware
08:35AM 56.3448 -6.2719 301° West 482 555 35,900  Descending FlightAware UK
08:35AM 56.3490 -6.2890 301° West 497 572 36,000  Climbing FlightAware
08:35AM 56.3732 -6.3858 301° West 486 559 35,900  Descending FlightAware UK
08:36AM 56.3920 -6.4620 301° West 497 572 36,000 60 Climbing FlightAware
08:36AM 56.4296 -6.6140 301° West 482 555 36,000  Level FlightAware UK
08:36AM 56.4330 -6.6280 301° West 497 572 36,000  Level FlightAware
08:37AM 56.4575 -6.7284 301° West 480 552 36,000  Level FlightAware UK
08:37AM 56.4610 -6.7430 301° West 500 575 36,000  Level FlightAware
08:37AM 56.4851 -6.8432 301° West 480 552 36,000  Level FlightAware UK
08:38AM 56.5082 -6.9605 290° West 482 555 36,000  Level FlightAware UK
08:38AM 56.5050 -6.9440 290° West 498 573 36,000  Level FlightAware
08:38AM 56.5294 -7.0791 290° West 484 557 36,000  Level FlightAware UK
08:38AM 56.5300 -7.0840 290° West 497 572 36,000 -240 Level FlightAware
08:39AM 56.5498 -7.1980 290° West 482 555 35,900  Descending FlightAware UK
08:39AM 56.5630 -7.2710 290° West 496 571 36,000  Climbing FlightAware
08:40AM 56.5910 -7.4354 290° West 484 557 35,900  Descending FlightAware UK
08:40AM 56.5890 -7.4220 290° West 496 571 36,000 180 Climbing FlightAware
08:40AM 56.6113 -7.5543 290° West 482 555 36,000  Level FlightAware UK
08:41AM 56.6250 -7.6340 290° West 496 571 36,000  Level FlightAware
08:41AM 56.6510 -7.7890 287° West 495 570 36,000 -120 Level FlightAware
08:42AM 56.6753 -7.9347 287° West 482 555 35,900  Descending FlightAware UK
08:42AM 56.6790 -7.9560 287° West 496 571 36,000  Climbing FlightAware
08:42AM 56.6952 -8.0540 287° West 482 555 35,900  Descending FlightAware UK
08:43AM 56.7070 -8.1260 287° West 493 567 36,000  Climbing FlightAware
08:43AM 56.7346 -8.2929 287° West 482 555 35,900  Descending FlightAware UK
08:43AM 56.7350 -8.2950 287° West 493 567 36,000  Climbing FlightAware
08:44AM 56.7542 -8.4126 287° West 482 555 35,900  Descending FlightAware UK
08:44AM 56.7600 -8.4530 287° West 494 568 36,000 180 Climbing FlightAware
08:44AM 56.7735 -8.5325 287° West 484 557 36,000  Level FlightAware UK
08:45AM 56.7870 -8.6140 287° West 493 567 36,000 -120 Level FlightAware
08:45AM 56.8121 -8.7726 287° West 486 559 35,900  Descending FlightAware UK
08:45AM 56.8150 -8.7950 287° West 493 567 36,000  Climbing FlightAware
08:46AM 56.8347 -8.9160 287° West 484 557 35,900  Descending FlightAware UK
08:46AM 56.8420 -8.9640 287° West 493 567 36,000 60 Climbing FlightAware
08:47AM 56.8680 -9.1310 286° West 492 566 36,000  Level FlightAware
08:47AM 56.8890 -9.2680 286° West 494 568 36,000  Level FlightAware
08:48AM 56.9210 -9.4720 286° West 495 570 36,000  Level FlightAware
08:49AM 56.9450 -9.6320 285° West 494 568 36,000  Level FlightAware
08:50AM 56.9650 -9.7660 285° West 494 568 36,000  Level FlightAware
08:50AM 57.0060 -10.0000 288° West 499 574 36,000  Level FlightAware
08:51AM 57.0600 -10.1820 299° West 503 579 36,000  Level FlightAware
08:52AM 57.1010 -10.3350 296° West 504 580 36,000  Level FlightAware
08:53AM 57.1460 -10.5130 295° West 509 586 36,000  Level FlightAware
08:53AM 57.1850 -10.6690 295° West 509 586 36,000  Level FlightAware
08:54AM 57.2230 -10.8270 294° West 509 586 36,000  Level FlightAware
08:55AM 57.2670 -11.0060 295° West 509 586 36,000  Level FlightAware
08:55AM 57.3040 -11.1620 294° West 506 582 36,000  Level FlightAware
08:56AM 57.3430 -11.3270 294° West 506 582 36,000  Level FlightAware
08:57AM 57.3910 -11.5400 293° West 506 582 36,000  Level FlightAware
08:58AM 57.4350 -11.7150 295° West 507 583 36,000  Level FlightAware
08:59AM 57.4920 -11.9620 293° West 509 586 36,000  Level FlightAware
08:59AM 57.5310 -12.1310 293° West 509 586 36,000  Level FlightAware
09:00AM 57.5670 -12.2900 293° West 510 587 36,000  Level FlightAware
09:01AM 57.6230 -12.5500 292° West 510 587 36,000  Level FlightAware
09:02AM 57.6490 -12.6680 292° West 510 587 36,000  Level FlightAware
09:03AM 57.6850 -12.8350 292° West 510 587 36,000  Level FlightAware
09:03AM 57.7130 -12.9640 292° West 510 587 36,000  Level FlightAware
09:04AM 57.7490 -13.1310 292° West 510 587 36,000  Level FlightAware
09:05AM 57.7740 -13.2490 292° West 510 587 36,000  Level FlightAware
09:05AM 57.8110 -13.4200 292° West 510 587 36,000  Level FlightAware
09:06AM 57.8380 -13.5460 292° West 510 587 36,000  Level FlightAware
09:07AM 57.8860 -13.7700 292° West 510 587 36,000  Level FlightAware
09:08AM 57.9120 -13.8890 292° West 510 587 36,000  Level FlightAware
09:08AM 57.9480 -14.0570 292° West 510 587 36,000  Level FlightAware
09:09AM 57.9760 -14.1870 292° West 510 587 36,000  Level FlightAware
09:10AM 58.0110 -14.3520 292° West 510 587 36,000  Level FlightAware
09:13AM 58.1317 -14.9571 291° West  Level FlightAware Approximate
09:14AM 58.1771 -15.1894 290° West  Level FlightAware Approximate
09:15AM 58.2220 -15.4223 290° West  Level FlightAware Approximate
09:16AM 58.2666 -15.6558 290° West  Level FlightAware Approximate
09:17AM 58.3107 -15.8899 290° West  Level FlightAware Approximate
09:18AM 58.3543 -16.1245 290° West  Level FlightAware Approximate
09:19AM 58.3976 -16.3598 289° West  Level FlightAware Approximate
09:20AM 58.4404 -16.5956 289° West  Level FlightAware Approximate
09:21AM 58.4828 -16.8320 289° West  Level FlightAware Approximate
09:22AM 58.5247 -17.0690 289° West  Level FlightAware Approximate
09:23AM 58.5662 -17.3065 289° West  Level FlightAware Approximate
09:24AM 58.6073 -17.5445 288° West  Level FlightAware Approximate
09:25AM 58.6479 -17.7832 288° West  Level FlightAware Approximate
09:26AM 58.6881 -18.0224 288° West  Level FlightAware Approximate
09:27AM 58.7278 -18.2621 288° West  Level FlightAware Approximate
09:28AM 58.7671 -18.5024 288° West  Level FlightAware Approximate
09:29AM 58.8059 -18.7432 287° West  Level FlightAware Approximate
09:30AM 58.8443 -18.9846 287° West  Level FlightAware Approximate
09:31AM 58.8823 -19.2265 287° West  Level FlightAware Approximate
09:32AM 58.9197 -19.4689 287° West  Level FlightAware Approximate
09:33AM 58.9568 -19.7118 287° West  Level FlightAware Approximate
09:34AM 58.9933 -19.9553 286° West  Level FlightAware Approximate
09:35AM 59.0275 -20.1998 285° West  Level FlightAware Approximate
09:36AM 59.0609 -20.4455 285° West  Level FlightAware Approximate
09:37AM 59.0938 -20.6917 285° West  Level FlightAware Approximate
09:38AM 59.1262 -20.9383 284° West  Level FlightAware Approximate
09:39AM 59.1581 -21.1854 284° West  Level FlightAware Approximate
09:40AM 59.1898 -21.4329 284° West  Level FlightAware Approximate
09:41AM 59.2218 -21.6805 284° West  Level FlightAware Approximate
09:42AM 59.2533 -21.9285 284° West  Level FlightAware Approximate
09:42AM 59.0000 -20.0000 285° West 516 594 36,000  Level ETMS Enhanced Traffic Management System
09:43AM 59.2843 -22.1770 284° West  Level FlightAware Approximate
09:44AM 59.3148 -22.4259 284° West  Level FlightAware Approximate
09:45AM 59.3449 -22.6752 283° West  Level FlightAware Approximate
09:46AM 59.3745 -22.9251 283° West  Level FlightAware Approximate
09:47AM 59.4036 -23.1753 283° West  Level FlightAware Approximate
09:48AM 59.5954 -24.9257 281° West 516 594 36,000  Level FlightAware Transoceanic
09:49AM 59.6230 -25.2042 281° West 516 594 36,000  Level FlightAware Transoceanic
09:50AM 59.6500 -25.4831 281° West 516 594 36,000  Level FlightAware Transoceanic
09:51AM 59.6763 -25.7625 280° West 516 594 36,000  Level FlightAware Transoceanic
09:52AM 59.7021 -26.0423 280° West 516 594 36,000  Level FlightAware Transoceanic
09:53AM 59.7273 -26.3225 280° West 516 594 36,000  Level FlightAware Transoceanic
09:54AM 59.7519 -26.6031 280° West 516 594 36,000  Level FlightAware Transoceanic
09:55AM 59.7759 -26.8842 280° West 516 594 36,000  Level FlightAware Transoceanic
09:56AM 59.7993 -27.1656 279° West 516 594 36,000  Level FlightAware Transoceanic
09:57AM 59.8221 -27.4475 279° West 516 594 36,000  Level FlightAware Transoceanic
09:58AM 59.8443 -27.7297 279° West 516 594 36,000  Level FlightAware Transoceanic
09:59AM 59.8659 -28.0123 279° West 516 594 36,000  Level FlightAware Transoceanic
10:00AM 59.8869 -28.2952 278° West 516 594 36,000  Level FlightAware Transoceanic
10:01AM 59.9073 -28.5785 278° West 516 594 36,000  Level FlightAware Transoceanic
10:02AM 59.9270 -28.8622 278° West 516 594 36,000  Level FlightAware Transoceanic
10:03AM 59.9462 -29.1462 278° West 516 594 36,000  Level FlightAware Transoceanic
10:04AM 59.9647 -29.4305 277° West 516 594 36,000  Level FlightAware Transoceanic
10:05AM 59.9827 -29.7151 277° West 516 594 36,000  Level FlightAware Transoceanic
10:06AM 59.9985 -29.9745 277° West  Level FlightAware Approximate
10:07AM 60.0137 -30.2342 277° West  Level FlightAware Approximate
10:08AM 60.0078 -30.2095 274° West  Level FlightAware Approximate
10:09AM 60.0170 -30.4704 274° West  Level FlightAware Approximate
10:10AM 60.0257 -30.7314 274° West  Level FlightAware Approximate
10:11AM 60.0339 -30.9925 274° West  Level FlightAware Approximate
10:12AM 60.0415 -31.2538 273° West  Level FlightAware Approximate
10:13AM 60.0486 -31.5151 273° West  Level FlightAware Approximate
10:14AM 60.0553 -31.7762 273° West  Level FlightAware Approximate
10:15AM 60.0614 -32.0374 273° West  Level FlightAware Approximate
10:16AM 60.0670 -32.2987 273° West  Level FlightAware Approximate
10:17AM 60.0720 -32.5600 272° West  Level FlightAware Approximate
10:18AM 60.0766 -32.8215 272° West  Level FlightAware Approximate
10:19AM 60.0806 -33.0830 272° West  Level FlightAware Approximate
10:20AM 60.0842 -33.3445 272° West  Level FlightAware Approximate
10:21AM 60.0872 -33.6061 271° West  Level FlightAware Approximate
10:22AM 60.0897 -33.8678 271° West  Level FlightAware Approximate
10:23AM 60.0916 -34.1295 271° West  Level FlightAware Approximate
10:24AM 60.0931 -34.3912 271° West  Level FlightAware Approximate
10:25AM 60.0940 -34.6529 271° West  Level FlightAware Approximate
10:26AM 60.0945 -34.9147 270° West  Level FlightAware Approximate
10:26AM 60.1000 -35.8167 269° West 530 610 36,000  Level Gander Center
10:27AM 60.0944 -35.1764 270° West  Level FlightAware Approximate
10:27AM 60.1000 -36.1000 270° West 530 610 36,000  Level Gander Center
10:28AM 60.0938 -35.4382 270° West  Level FlightAware Approximate
10:28AM 60.1000 -36.4167 270° West 530 610 36,000  Level Gander Center
10:29AM 60.0927 -35.6999 270° West  Level FlightAware Approximate
10:29AM 60.1000 -36.6667 270° West 530 610 36,000  Level Gander Center
10:30AM 60.0910 -35.9616 269° West  Level FlightAware Approximate
10:30AM 60.0833 -36.9833 264° West 530 610 36,000  Level Gander Center
10:31AM 60.0888 -36.2233 269° West  Level FlightAware Approximate
10:31AM 60.0833 -37.2667 270° West 530 610 36,000  Level Gander Center
10:32AM 60.0862 -36.4850 269° West  Level FlightAware Approximate
10:32AM 60.0833 -37.5500 270° West 530 610 36,000  Level Gander Center
10:33AM 60.0667 -37.8667 264° West 530 610 36,000  Level Gander Center
10:34AM 60.0667 -38.1167 270° West 530 610 36,000  Level Gander Center
10:35AM 60.0500 -38.4000 263° West 530 610 36,000  Level Gander Center
10:36AM 60.0667 -38.7167 276° West 530 610 36,000  Level Gander Center
10:37AM 60.0333 -39.0000 257° West 530 610 36,000  Level Gander Center
10:38AM 60.0333 -39.3167 270° West 530 610 36,000  Level Gander Center
10:39AM 60.0167 -39.6167 264° West 530 610 36,000  Level Gander Center
10:40AM 60.0000 -39.8667 263° West 530 610 36,000  Level Gander Center
10:41AM 59.9833 -40.1167 263° West 530 610 36,000  Level Gander Center
10:42AM 59.9333 -40.4167 252° West 530 610 36,000  Level Gander Center
10:43AM 59.9000 -40.6833 256° West 530 610 36,000  Level Gander Center
10:44AM 59.8500 -40.9500 250° West 530 610 36,000  Level Gander Center
10:45AM 59.8000 -41.2167 250° West 530 610 36,000  Level Gander Center
10:46AM 59.7667 -41.5167 258° West 530 610 36,000  Level Gander Center
10:47AM 59.7167 -41.7833 250° West 530 610 36,000  Level Gander Center
10:48AM 59.6667 -42.0500 250° West 520 598 36,000  Level Gander Center
10:49AM 59.6167 -42.3167 250° West 530 610 36,000  Level Gander Center
10:50AM 59.5833 -42.6167 258° West 530 610 36,000  Level Gander Center
10:51AM 59.5333 -42.8667 249° West 530 610 36,000  Level Gander Center
10:52AM 59.4833 -43.1333 250° West 530 610 36,000  Level Gander Center
10:53AM 59.4167 -43.4333 247° West 540 621 36,000  Level Gander Center
10:54AM 59.3667 -43.7000 250° West 540 621 36,000  Level Gander Center
10:55AM 59.3167 -43.9500 249° West 530 610 36,000  Level Gander Center
10:56AM 59.2667 -44.2500 252° West 530 610 36,000  Level Gander Center
10:57AM 59.2167 -44.5000 249° West 530 610 36,000  Level Gander Center
10:58AM 59.1667 -44.7667 250° West 520 598 36,000  Level Gander Center
10:59AM 59.1333 -45.0167 256° West 510 587 36,000  Level Gander Center
11:00AM 59.0667 -45.2667 243° Southwest 510 587 36,000  Level Gander Center
11:01AM 59.0167 -45.5167 249° West 510 587 36,000  Level Gander Center
11:02AM 58.9667 -45.7833 250° West 510 587 36,000  Level Gander Center
11:03AM 58.9000 -46.0333 243° Southwest 520 598 36,000  Level Gander Center
11:04AM 58.8500 -46.2833 249° West 520 598 36,000  Level Gander Center
11:05AM 58.8000 -46.5333 249° West 520 598 36,000  Level Gander Center
11:06AM 58.7333 -46.8000 244° Southwest 520 598 36,000  Level Gander Center
11:07AM 58.7000 -47.0667 257° West 520 598 36,000  Level Gander Center
11:08AM 58.6500 -47.3167 249° West 510 587 36,000  Level Gander Center
11:09AM 58.5833 -47.5667 243° Southwest 510 587 36,000  Level Gander Center
11:10AM 58.5333 -47.8167 249° West 510 587 36,000  Level Gander Center
11:11AM 58.4667 -48.0667 243° Southwest 510 587 36,000  Level Gander Center
11:12AM 58.4000 -48.3167 243° Southwest 510 587 36,000  Level Gander Center
11:13AM 58.3667 -48.5500 255° West 510 587 36,000  Level Gander Center
11:14AM 58.3000 -48.8000 243° Southwest 510 587 36,000  Level Gander Center
11:15AM 58.2333 -49.0500 243° Southwest 510 587 36,000  Level Gander Center
11:16AM 58.1833 -49.2833 248° West 510 587 36,000  Level Gander Center
11:17AM 58.1167 -49.5333 243° Southwest 510 587 36,000  Level Gander Center
11:18AM 58.0500 -49.7833 243° Southwest 510 587 36,000  Level Gander Center
11:19AM 58.0000 -50.0167 248° West 510 587 36,000  Level Gander Center
11:20AM 57.9667 -50.2833 257° West 510 587 36,000  Level Gander Center
11:21AM 57.9167 -50.5167 248° West 510 587 36,000  Level Gander Center
11:22AM 57.8667 -50.7833 251° West 510 587 36,000  Level Gander Center
11:23AM 57.8167 -51.0167 248° West 510 587 36,000  Level Gander Center
11:24AM 57.7833 -51.2833 257° West 510 587 36,000  Level Gander Center
11:25AM 57.7333 -51.5167 248° West 510 587 36,000  Level Gander Center
11:27AM 57.6763 -51.7798 248° West  Level FlightAware Approximate
11:27AM 57.6500 -51.9667 248° West 500 575 36,000  Level Gander Center
11:28AM 57.6000 -52.2333 251° West 500 575 36,000  Level Gander Center
11:30AM 57.5431 -52.4824 247° West  Level FlightAware Approximate
11:37AM 57.1700 -54.0488 247° West  Level FlightAware Approximate
11:38AM 57.1151 -54.2699 246° West  Level FlightAware Approximate
11:39AM 57.0598 -54.4905 245° Southwest  Level FlightAware Approximate
11:40AM 57.0042 -54.7103 245° Southwest  Level FlightAware Approximate
11:40AM 57.0500 -54.9833 253° West 350 403 36,000  Level Gander Center
11:41AM 56.9481 -54.9295 245° Southwest  Level FlightAware Approximate
11:41AM 57.0000 -55.1833 245° Southwest 460 529 36,000  Level Gander Center
11:42AM 56.8917 -55.1480 245° Southwest  Level FlightAware Approximate
11:42AM 56.9500 -55.4333 250° West 530 610 25,500  Level Gander Center
11:43AM 56.8349 -55.3659 245° Southwest  Level FlightAware Approximate
11:44AM 56.7777 -55.5831 244° Southwest  Level FlightAware Approximate
11:44AM 56.8667 -55.9333 253° West 490 564 36,000  Level Gander Center
11:45AM 56.7380 -55.8126 253° West  Level FlightAware Approximate
11:45AM 56.8167 -56.1500 247° West 520 598 36,000  Level Gander Center
11:46AM 56.7833 -56.4000 256° West 510 587 36,000 240 Level Gander Center
11:47AM 56.7333 -56.6167 247° West 500 575 36,500 660 Climbing Gander Center
11:47AM 56.7000 -56.7833 250° West 510 587 37,000 960 Climbing Gander Center
11:48AM 56.6833 -56.9000 255° West 510 587 37,500 600 Climbing Gander Center
11:49AM 56.6333 -57.1500 250° West 490 564 38,000 300 Climbing Gander Center
11:49AM 56.6167 -57.2500 253° West 490 564 38,000  Level Gander Center
11:50AM 56.6000 -57.3667 255° West 500 575 38,000  Level Gander Center
11:51AM 56.5500 -57.6167 250° West 500 575 38,000  Level Gander Center
11:52AM 56.4833 -57.8333 241° Southwest 490 564 38,000  Level Gander Center
11:52AM 56.4833 -57.9333 270° West 490 564 38,000  Level Gander Center
11:53AM 56.4333 -58.1667 249° West 490 564 38,000  Level Gander Center
11:54AM 56.4000 -58.3000 246° West 490 564 38,000  Level Gander Center
11:55AM 56.3500 -58.5333 249° West 490 564 38,000  Level Gander Center
11:56AM 56.3167 -58.7500 255° West 490 564 38,000  Level Gander Center
11:57AM 56.2500 -59.0000 244° Southwest 490 564 38,000  Level Gander Center
11:57AM 56.2333 -59.0833 250° West 490 564 38,000  Level Gander Center
11:58AM 56.2000 -59.2333 248° West 490 564 38,000  Level Gander Center
11:59AM 56.1500 -59.4500 248° West 490 564 38,000  Level Gander Center
11:59AM 56.1333 -59.5500 253° West 490 564 38,000  Level Gander Center
12:00PM 56.1167 -59.6667 256° West 490 564 38,000  Level Gander Center
12:00PM 56.0833 -59.7833 243° Southwest 490 564 38,000  Level Gander Center
12:01PM 56.0333 -60.0000 248° West 490 564 38,000  Level Gander Center
12:02PM 56.0000 -60.1500 248° West 490 564 38,000  Level Gander Center
12:03PM 55.9500 -60.3500 246° West 490 564 38,000  Level Gander Center
12:04PM 55.9000 -60.6000 250° West 490 564 38,000  Level Gander Center
12:04PM 55.8833 -60.6833 250° West 490 564 38,000  Level Gander Center
12:05PM 55.8500 -60.8000 243° Southwest 490 564 38,000  Level Gander Center
12:05PM 55.8167 -60.9000 239° Southwest 490 564 38,000  Level Gander Center
12:06PM 55.7667 -61.1333 249° West 490 564 38,000  Level Gander Center
12:07PM 55.7333 -61.2500 243° Southwest 490 564 38,000  Level Gander Center
12:08PM 55.6833 -61.4833 249° West 490 564 38,000  Level Gander Center
12:09PM 55.6333 -61.7000 248° West 480 552 38,000  Level Gander Center
12:10PM 55.5833 -61.9333 249° West 480 552 38,000  Level Gander Center
12:10PM 55.5500 -62.0167 235° Southwest 480 552 38,000  Level Gander Center
12:11PM 55.5000 -62.2333 248° West 480 552 38,000  Level Gander Center
12:12PM 55.4500 -62.4333 246° West 470 541 38,000  Level Gander Center
12:13PM 55.4167 -62.5500 243° Southwest 480 552 38,000  Level Gander Center
12:14PM 55.3667 -62.7500 246° West 480 552 38,000  Level Gander Center
12:15PM 55.3000 -62.9833 243° Southwest 480 552 38,000  Level Gander Center
12:16PM 55.2500 -63.1833 246° West 480 552 38,000  Level Gander Center
12:17PM 55.2000 -63.4167 250° West 480 552 38,000  Level Gander Center
12:17PM 55.1667 -63.5000 235° Southwest 480 552 38,000  Level Gander Center
12:18PM 55.1167 -63.7000 246° West 480 552 38,000  Level Gander Center
12:19PM 55.0667 -63.8500 240° Southwest 490 564 38,000  Level Gander Center
12:20PM 55.0167 -64.0500 247° West 480 552 38,000  Level Gander Center
12:21PM 54.9667 -64.2500 247° West 480 552 38,000  Level Gander Center
12:22PM 54.9167 -64.4500 247° West 480 552 38,000  Level Gander Center
12:23PM 54.8500 -64.6833 244° Southwest 480 552 38,000  Level Gander Center
12:24PM 54.8000 -64.8833 247° West 480 552 38,000  Level Gander Center
12:25PM 54.7500 -65.0833 247° West 480 552 38,000  Level Gander Center
12:26PM 54.6667 -65.3000 236° Southwest 480 552 38,000  Level Gander Center
12:27PM 54.6167 -65.5000 247° West 470 541 38,000  Level Gander Center
12:28PM 54.5500 -65.7167 242° Southwest 480 552 38,000  Level Gander Center
12:29PM 54.5000 -65.9167 247° West 470 541 38,000  Level Gander Center
12:30PM 54.4333 -66.1167 240° Southwest 480 552 38,000  Level Gander Center
12:31PM 54.3833 -66.3000 245° Southwest 470 541 38,000  Level Gander Center
12:32PM 54.3000 -66.5000 235° Southwest 470 541 38,000  Level Gander Center
12:33PM 54.2500 -66.7167 249° West 470 541 38,000  Level Gander Center
12:34PM 54.1833 -66.9167 240° Southwest 470 541 38,000  Level Gander Center
12:35PM 54.1333 -67.1000 245° Southwest 470 541 38,000  Level Gander Center
12:36PM 54.0833 -67.3000 247° West 470 541 38,000  Level Gander Center
12:37PM 54.0167 -67.5167 242° Southwest 460 529 38,000  Level Gander Center
12:38PM 53.9833 -67.7167 254° West 460 529 38,000  Level Gander Center
12:39PM 53.9167 -67.9000 238° Southwest 460 529 38,000  Level Gander Center
12:40PM 53.8667 -68.1000 247° West 460 529 38,000  Level Gander Center
12:41PM 53.8167 -68.3167 249° West 460 529 38,000  Level Gander Center
12:43PM 53.7000 -68.6667 241° Southwest 460 529 38,000  Level Montreal Center
12:44PM 53.6500 -68.8500 245° Southwest 450 518 38,000  Level Montreal Center
12:45PM 53.6000 -69.0667 249° West 460 529 38,000  Level Montreal Center
12:46PM 53.5333 -69.2500 239° Southwest 450 518 38,000  Level Montreal Center
12:47PM 53.4833 -69.4500 247° West 460 529 38,000  Level Montreal Center
12:48PM 53.4167 -69.6333 239° Southwest 460 529 38,000  Level Montreal Center
12:49PM 53.3667 -69.8333 247° West 450 518 38,000  Level Montreal Center
12:50PM 53.3167 -70.0333 247° West 450 518 38,000  Level Montreal Center
12:51PM 53.2500 -70.2167 239° Southwest 450 518 38,000  Level Montreal Center
12:52PM 53.2000 -70.4000 246° West 450 518 38,000  Level Montreal Center
12:53PM 53.1333 -70.6000 241° Southwest 440 506 38,000  Level Montreal Center
12:54PM 53.0833 -70.7667 244° Southwest 440 506 38,000  Level Montreal Center
12:55PM 53.0333 -70.9500 246° West 440 506 38,000  Level Montreal Center
12:56PM 52.9667 -71.1167 236° Southwest 440 506 38,000  Level Montreal Center
12:57PM 52.9167 -71.3333 249° West 440 506 38,000  Level Montreal Center
12:58PM 52.8500 -71.5000 237° Southwest 440 506 38,000  Level Montreal Center
12:59PM 52.8000 -71.6667 244° Southwest 440 506 38,000  Level Montreal Center
01:00PM 52.7500 -71.8500 246° West 440 506 38,000  Level Montreal Center
01:01PM 52.6833 -72.0500 241° Southwest 440 506 38,000  Level Montreal Center
01:02PM 52.6167 -72.2167 237° Southwest 440 506 38,000  Level Montreal Center
01:03PM 52.5667 -72.3833 244° Southwest 450 518 38,000  Level Montreal Center
01:04PM 52.5167 -72.5833 248° West 440 506 38,000  Level Montreal Center
01:05PM 52.4333 -72.7667 233° Southwest 450 518 38,000  Level Montreal Center
01:06PM 52.4000 -72.9500 253° West 450 518 38,000  Level Montreal Center
01:07PM 52.3333 -73.1333 239° Southwest 450 518 38,000  Level Montreal Center
01:08PM 52.2667 -73.3000 237° Southwest 440 506 38,000  Level Montreal Center
01:09PM 52.2000 -73.4667 237° Southwest 440 506 38,000  Level Montreal Center
01:10PM 52.1500 -73.6667 248° West 440 506 38,000  Level Montreal Center
01:11PM 52.0833 -73.8333 237° Southwest 440 506 38,000  Level Montreal Center
01:12PM 52.0333 -74.0167 246° West 440 506 38,000  Level Montreal Center
01:13PM 51.9667 -74.1667 234° Southwest 440 506 38,000  Level Montreal Center
01:14PM 51.9000 -74.3500 240° Southwest 430 495 38,000  Level Montreal Center
01:15PM 51.8500 -74.5167 244° Southwest 440 506 38,000  Level Montreal Center
01:16PM 51.7833 -74.6833 237° Southwest 430 495 38,000  Level Montreal Center
01:17PM 51.7167 -74.8500 237° Southwest 440 506 38,000  Level Montreal Center
01:18PM 51.6500 -75.0500 242° Southwest 440 506 38,000  Level Montreal Center
01:19PM 51.6000 -75.2000 242° Southwest 440 506 38,000  Level Montreal Center
01:20PM 51.5333 -75.4000 242° Southwest 440 506 38,000  Level Montreal Center
01:21PM 51.4667 -75.5667 237° Southwest 440 506 38,000  Level Montreal Center
01:22PM 51.4000 -75.7167 235° Southwest 440 506 38,000  Level Montreal Center
01:23PM 51.3333 -75.8833 237° Southwest 450 518 38,000  Level Montreal Center
01:24PM 51.2667 -76.0667 240° Southwest 450 518 38,000  Level Montreal Center
01:25PM 51.2000 -76.2333 237° Southwest 450 518 38,000  Level Montreal Center
01:26PM 51.1500 -76.4000 244° Southwest 450 518 38,000  Level Montreal Center
01:27PM 51.0833 -76.5833 240° Southwest 450 518 38,000  Level Montreal Center
01:28PM 51.0167 -76.7333 235° Southwest 450 518 38,000  Level Montreal Center
01:29PM 50.9500 -76.9333 242° Southwest 450 518 38,000  Level Montreal Center
01:30PM 50.8833 -77.0833 235° Southwest 450 518 38,000  Level Montreal Center
01:31PM 50.8167 -77.2667 240° Southwest 450 518 38,000  Level Montreal Center
01:32PM 50.7333 -77.4333 232° Southwest 450 518 38,000  Level Montreal Center
01:33PM 50.6667 -77.6167 240° Southwest 460 529 38,000  Level Montreal Center
01:34PM 50.6000 -77.7667 235° Southwest 460 529 38,000  Level Montreal Center
01:35PM 50.5333 -77.9500 240° Southwest 460 529 38,000  Level Montreal Center
01:36PM 50.4667 -78.1333 240° Southwest 460 529 38,000  Level Montreal Center
01:37PM 50.4000 -78.2833 235° Southwest 460 529 38,000  Level Montreal Center
01:38PM 50.3167 -78.4667 235° Southwest 460 529 38,000  Level Montreal Center
01:39PM 50.2500 -78.6167 235° Southwest 460 529 38,000  Level Montreal Center
01:40PM 50.1833 -78.8000 240° Southwest 470 541 38,000  Level Montreal Center
01:41PM 50.1167 -78.9500 235° Southwest 470 541 38,000  Level Montreal Center
01:42PM 50.0333 -79.1333 235° Southwest 460 529 38,000  Level Montreal Center
01:43PM 49.9667 -79.3167 241° Southwest 470 541 38,000  Level Montreal Center
01:44PM 49.8833 -79.4833 232° Southwest 470 541 38,000  Level Montreal Center
01:45PM 49.8167 -79.6000 228° Southwest 470 541 38,000  Level Toronto Center
01:46PM 49.7500 -79.7833 241° Southwest 480 552 38,000  Level Toronto Center
01:47PM 49.6667 -79.9333 229° Southwest 480 552 38,000  Level Toronto Center
01:48PM 49.5833 -80.1000 232° Southwest 470 541 38,000  Level Toronto Center
01:49PM 49.4833 -80.2500 224° Southwest 470 541 38,000  Level Toronto Center
01:50PM 49.4000 -80.3667 222° Southwest 490 564 38,000  Level Toronto Center
01:51PM 49.2833 -80.5167 220° Southwest 480 552 38,000  Level Toronto Center
01:52PM 49.2000 -80.6500 226° Southwest 480 552 38,000  Level Toronto Center
01:53PM 49.1000 -80.8000 225° Southwest 480 552 38,000  Level Toronto Center
01:54PM 48.9833 -80.9167 213° Southwest 480 552 38,000  Level Toronto Center
01:55PM 48.9000 -81.0500 226° Southwest 480 552 38,000  Level Toronto Center
01:56PM 48.8000 -81.2000 225° Southwest 480 552 38,000  Level Toronto Center
01:57PM 48.7000 -81.3167 218° Southwest 480 552 38,000  Level Toronto Center
01:58PM 48.6000 -81.4667 225° Southwest 480 552 38,000  Level Toronto Center
01:59PM 48.5000 -81.6167 225° Southwest 480 552 38,000  Level Toronto Center
02:00PM 48.4000 -81.7333 218° Southwest 480 552 38,000  Level Toronto Center
02:01PM 48.3167 -81.8833 230° Southwest 480 552 38,000  Level Toronto Center
02:02PM 48.1833 -82.0000 210° Southwest 480 552 38,000  Level Toronto Center
02:03PM 48.1000 -82.1500 230° Southwest 480 552 38,000  Level Toronto Center
02:04PM 48.0000 -82.2667 218° Southwest 480 552 38,000  Level Toronto Center
02:10PM 47.4440 -83.0280 218° Southwest 469 540 38,000  Level FlightAware
02:10PM 47.3610 -83.1330 221° Southwest 467 537 38,000  Level FlightAware
02:11PM 47.2920 -83.2210 221° Southwest 466 536 38,000  Level FlightAware
02:12PM 47.2260 -83.3060 221° Southwest 465 535 38,000  Level FlightAware
02:13PM 47.1580 -83.3920 221° Southwest 464 534 38,000  Level FlightAware
02:13PM 47.0890 -83.4780 220° Southwest 464 534 38,000  Level FlightAware
02:14PM 47.0240 -83.5600 221° Southwest 464 534 38,000  Level FlightAware
02:15PM 46.9290 -83.6780 220° Southwest 463 533 38,000  Level FlightAware
02:16PM 46.8640 -83.7590 220° Southwest 463 533 38,000  Level FlightAware
02:16PM 46.7900 -83.8520 221° Southwest 464 534 38,000  Level FlightAware
02:17PM 46.7250 -83.9320 220° Southwest 464 534 38,000  Level FlightAware
02:18PM 46.6550 -84.0180 220° Southwest 466 536 38,000  Level FlightAware
02:18PM 46.5920 -84.0960 220° Southwest 468 539 38,000  Level FlightAware
02:19PM 46.5180 -84.1850 220° Southwest 469 540 38,000  Level FlightAware
02:20PM 46.4490 -84.2700 220° Southwest 469 540 38,000  Level FlightAware
02:20PM 46.3660 -84.3310 207° Southwest 496 571 38,000  Level FlightAware
02:21PM 46.2730 -84.3640 194° South 501 577 38,000  Level FlightAware
02:22PM 46.1800 -84.3950 193° South 504 580 38,000  Level FlightAware
02:23PM 46.0810 -84.4290 193° South 505 581 38,000  Level FlightAware
02:23PM 45.9810 -84.4630 193° South 507 583 38,000  Level FlightAware
02:24PM 45.8850 -84.4970 194° South 509 586 38,000  Level FlightAware
02:25PM 45.7980 -84.5260 193° South 509 586 38,000  Level FlightAware
02:25PM 45.6980 -84.5570 192° South 517 595 38,000  Level FlightAware
02:26PM 45.5950 -84.5450 175° South 537 618 38,000  Level FlightAware
02:27PM 45.5040 -84.4770 152° Southeast 548 631 38,000  Level FlightAware
02:27PM 45.4300 -84.3920 141° Southeast 549 632 38,000  Level FlightAware
02:28PM 45.3350 -84.2950 144° Southeast 544 626 38,000  Level FlightAware
02:29PM 45.2360 -84.2620 167° South 521 600 38,000  Level FlightAware
02:29PM 45.1560 -84.2840 191° South 494 568 38,000  Level FlightAware
02:31PM 45.0090 -84.3810 205° Southwest 489 563 38,000 -600 Level FlightAware
02:31PM 44.9080 -84.4480 205° Southwest 490 564 36,900 -1,140 Descending FlightAware
02:32PM 44.8290 -84.4990 205° Southwest 485 558 36,500 -1,020 Descending FlightAware
02:33PM 44.7380 -84.5570 204° Southwest 481 554 35,500 -1,680 Descending FlightAware
02:34PM 44.6470 -84.6160 205° Southwest 488 562 34,100 -1,440 Descending FlightAware
02:34PM 44.5690 -84.6650 204° Southwest 480 552 33,500 -1,260 Descending FlightAware
02:35PM 44.4820 -84.7210 205° Southwest 481 554 32,400 -1,140 Descending FlightAware
02:36PM 44.3970 -84.7750 204° Southwest 483 556 32,000 -300 Descending FlightAware
02:36PM 44.3150 -84.8270 204° Southwest 485 558 32,000  Level FlightAware
02:37PM 44.2230 -84.8850 204° Southwest 488 562 32,000  Level FlightAware
02:38PM 44.1450 -84.9340 204° Southwest 490 564 32,000  Level FlightAware
02:38PM 44.0490 -84.9940 204° Southwest 490 564 32,000  Level FlightAware
02:39PM 43.9670 -85.0450 204° Southwest 489 563 32,000  Level FlightAware
02:40PM 43.8480 -85.1200 204° Southwest 489 563 32,000  Level FlightAware
02:41PM 43.7650 -85.1720 204° Southwest 488 562 32,000  Level FlightAware
02:41PM 43.6660 -85.2230 200° South 503 579 32,000  Level FlightAware
02:42PM 43.5760 -85.2530 194° South 507 583 32,000  Level FlightAware
02:43PM 43.4790 -85.2830 193° South 506 582 32,000 -660 Level FlightAware
02:44PM 43.3910 -85.3100 193° South 503 579 31,100 -1,620 Descending FlightAware
02:44PM 43.3040 -85.3370 193° South 505 581 29,900 -1,860 Descending FlightAware
02:45PM 43.2020 -85.3690 193° South 505 581 28,600 -1,260 Descending FlightAware
02:46PM 43.0960 -85.4020 193° South 469 540 28,000 -420 Descending FlightAware
02:46PM 43.0120 -85.4280 193° South 458 527 28,000  Level FlightAware
02:47PM 42.9270 -85.4540 193° South 459 528 28,000 -420 Level FlightAware
02:48PM 42.8400 -85.4840 194° South 442 509 27,500 -900 Descending FlightAware
02:48PM 42.7830 -85.5500 220° Southwest 398 458 26,800 -1,080 Descending FlightAware
02:49PM 42.7590 -85.6470 251° West 374 430 26,100 -1,080 Descending FlightAware
02:50PM 42.7410 -85.7510 257° West 369 425 25,300 -1,080 Descending FlightAware
02:51PM 42.7260 -85.8400 257° West 365 420 24,600 -1,140 Descending FlightAware
02:51PM 42.7080 -85.9330 255° West 362 417 23,800 -1,140 Descending FlightAware
02:52PM 42.6920 -86.0190 256° West 358 412 23,100 -1,080 Descending FlightAware
02:53PM 42.6750 -86.1130 256° West 349 402 22,300 -1,980 Descending FlightAware
02:53PM 42.6580 -86.2080 256° West 367 422 20,300 -1,800 Descending FlightAware
02:54PM 42.6430 -86.2850 255° West 355 409 20,000 -240 Descending FlightAware
02:55PM 42.6240 -86.3890 256° West 360 414 20,000 -480 Level FlightAware
02:55PM 42.6070 -86.4800 256° West 364 419 19,300 -1,440 Descending FlightAware
02:56PM 42.5890 -86.5750 256° West 353 406 18,000 -1,680 Descending FlightAware
02:57PM 42.5770 -86.6400 256° West 348 400 17,100 -1,800 Descending FlightAware
02:58PM 42.5530 -86.7520 254° West 348 400 15,500 -1,920 Descending FlightAware
02:58PM 42.5310 -86.8330 250° West 344 396 14,300 -1,800 Descending FlightAware
02:59PM 42.5100 -86.9110 250° West 345 397 13,200 -1,860 Descending FlightAware
03:00PM 42.4830 -87.0110 250° West 349 402 11,700 -1,620 Descending FlightAware
03:00PM 42.4610 -87.0900 249° West 331 381 10,900 -1,080 Descending FlightAware
03:01PM 42.4430 -87.1560 250° West 305 351 10,400 -780 Descending FlightAware
03:02PM 42.4150 -87.2220 240° Southwest 300 345 9,900 -900 Descending FlightAware
03:02PM 42.3970 -87.2320 202° Southwest 308 354 9,600 -1,200 Descending FlightAware
03:02PM 42.3560 -87.2350 183° South 308 354 9,100 -720 Descending FlightAware
03:03PM 42.3220 -87.2370 182° South 298 343 9,000 -120 Descending FlightAware
03:03PM 42.2810 -87.2390 182° South 297 342 9,000  Level FlightAware
03:04PM 42.2560 -87.2410 183° South 296 341 9,000  Level FlightAware
03:04PM 42.2180 -87.2430 182° South 296 341 9,000  Level FlightAware
03:04PM 42.1850 -87.2450 183° South 296 341 9,000  Level FlightAware
03:05PM 42.1240 -87.2490 183° South 283 326 9,000  Level FlightAware
03:06PM 42.0880 -87.2500 181° South 255 293 9,000 -300 Level FlightAware
03:06PM 42.0720 -87.2510 183° South 248 285 8,800 -1,020 Descending FlightAware
03:06PM 42.0470 -87.2530 183° South 246 283 8,400 -1,200 Descending FlightAware
03:07PM 42.0290 -87.2650 206° Southwest 233 268 8,000 -1,260 Descending FlightAware
03:07PM 42.0120 -87.2930 231° Southwest 229 264 7,500 -1,080 Descending FlightAware
03:07PM 41.9920 -87.3300 234° Southwest 231 266 7,000 -720 Descending FlightAware
03:08PM 41.9850 -87.3440 236° Southwest 226 260 7,000  Level FlightAware
03:08PM 41.9820 -87.3630 258° West 220 253 7,000  Level FlightAware
03:08PM 41.9820 -87.3980 270° West 220 253 7,000  Level FlightAware
03:09PM 41.9830 -87.4220 273° West 221 254 7,000 -180 Level FlightAware
03:09PM 41.9830 -87.4630 270° West 222 255 6,900 -600 Descending FlightAware
03:10PM 41.9830 -87.5350 270° West 222 255 6,200 -960 Descending FlightAware
03:10PM 41.9840 -87.5690 272° West 223 257 5,700 -1,380 Descending FlightAware
03:11PM 41.9830 -87.6330 269° West 218 251 4,600 -1,560 Descending FlightAware
03:12PM 41.9840 -87.6670 272° West 218 251 3,800 -1,560 Descending FlightAware
03:12PM 41.9830 -87.7020 268° West 205 236 3,200 -1,020 Descending FlightAware
03:13PM 41.9840 -87.7490 272° West 172 198 2,700 -840 Descending FlightAware
03:13PM 41.9840 -87.7850 270° West 178 205 2,200 -1,020 Descending FlightAware
03:14PM 41.9840 -87.8130 270° West 166 191 1,800 -840 Descending FlightAware
03:14PM 41.9840 -87.8340 270° West 145 167 1,500 -840 Descending FlightAware
03:14PM 41.9840 -87.8540 270° West 140 161 1,200 -780 Descending FlightAware
03:15PM 41.9840 -87.8870 270° West 139 160 800 -600 Descending FlightAware
03:16PM 41.9840 -87.8930 270° West 139 160 600 -480 Descending FlightAware
03:16PM 41.9830 -87.9120 266° West 14 16 -780 Descending FlightAware
03:17PM 41.9820 -87.9120 180° South 26 30  Level FlightAware
03:17PM 41.9820 -87.9110 90° East 19 22  Level FlightAware